sensor_id;sensor_type;location;lat;lon;timestamp;P1;durP1;ratioP1;P2;durP2;ratioP2
7116;SDS011;3600;48.568;7.870;2024-02-28T00:00:27;16.30;;;13.63;;
7116;SDS011;3600;48.568;7.870;2024-02-28T00:02:55;16.20;;;13.37;;
7116;SDS011;3600;48.568;7.870;2024-02-28T00:05:21;17.40;;;13.57;;
7116;SDS011;3600;48.568;7.870;2024-02-28T00:07:48;16.20;;;13.23;;
7116;SDS011;3600;48.568;7.870;2024-02-28T00:10:15;18.33;;;14.23;;
7116;SDS011;3600;48.568;7.870;2024-02-28T00:12:42;16.87;;;12.97;;
7116;SDS011;3600;48.568;7.870;2024-02-28T00:15:09;15.53;;;12.53;;
7116;SDS011;3600;48.568;7.870;2024-02-28T00:17:40;15.97;;;13.53;;
7116;SDS011;3600;48.568;7.870;2024-02-28T00:20:08;16.20;;;13.43;;
7116;SDS011;3600;48.568;7.870;2024-02-28T00:22:36;17.73;;;13.67;;
7116;SDS011;3600;48.568;7.870;2024-02-28T00:25:05;14.43;;;12.93;;
7116;SDS011;3600;48.568;7.870;2024-02-28T00:27:34;16.37;;;14.00;;
7116;SDS011;3600;48.568;7.870;2024-02-28T00:30:01;15.73;;;13.37;;
7116;SDS011;3600;48.568;7.870;2024-02-28T00:32:31;18.33;;;13.10;;
7116;SDS011;3600;48.568;7.870;2024-02-28T00:34:58;17.43;;;13.13;;
7116;SDS011;3600;48.568;7.870;2024-02-28T00:37:25;14.50;;;12.93;;
7116;SDS011;3600;48.568;7.870;2024-02-28T00:39:52;17.23;;;13.73;;
7116;SDS011;3600;48.568;7.870;2024-02-28T00:42:19;15.30;;;12.90;;
7116;SDS011;3600;48.568;7.870;2024-02-28T00:44:46;15.73;;;13.40;;
7116;SDS011;3600;48.568;7.870;2024-02-28T00:47:15;16.80;;;12.00;;
7116;SDS011;3600;48.568;7.870;2024-02-28T00:49:42;15.60;;;13.00;;
7116;SDS011;3600;48.568;7.870;2024-02-28T00:52:09;16.00;;;13.10;;
7116;SDS011;3600;48.568;7.870;2024-02-28T00:54:37;17.00;;;12.40;;
7116;SDS011;3600;48.568;7.870;2024-02-28T00:57:04;17.03;;;13.43;;
7116;SDS011;3600;48.568;7.870;2024-02-28T00:59:30;16.60;;;12.70;;
7116;SDS011;3600;48.568;7.870;2024-02-28T01:01:57;14.20;;;12.70;;
7116;SDS011;3600;48.568;7.870;2024-02-28T01:04:24;16.77;;;13.23;;
7116;SDS011;3600;48.568;7.870;2024-02-28T01:06:51;16.93;;;13.00;;
7116;SDS011;3600;48.568;7.870;2024-02-28T01:09:18;14.75;;;11.43;;
7116;SDS011;3600;48.568;7.870;2024-02-28T01:11:47;17.87;;;13.23;;
7116;SDS011;3600;48.568;7.870;2024-02-28T01:14:14;15.50;;;12.03;;
7116;SDS011;3600;48.568;7.870;2024-02-28T01:16:40;16.33;;;12.75;;
7116;SDS011;3600;48.568;7.870;2024-02-28T01:19:07;14.40;;;12.33;;
7116;SDS011;3600;48.568;7.870;2024-02-28T01:21:34;14.53;;;12.10;;
7116;SDS011;3600;48.568;7.870;2024-02-28T01:24:01;14.67;;;12.20;;
7116;SDS011;3600;48.568;7.870;2024-02-28T01:26:30;15.33;;;12.40;;
7116;SDS011;3600;48.568;7.870;2024-02-28T01:28:57;15.47;;;12.97;;
7116;SDS011;3600;48.568;7.870;2024-02-28T01:31:23;16.40;;;12.73;;
7116;SDS011;3600;48.568;7.870;2024-02-28T01:33:50;18.00;;;14.00;;
7116;SDS011;3600;48.568;7.870;2024-02-28T01:36:17;15.60;;;12.37;;
7116;SDS011;3600;48.568;7.870;2024-02-28T01:38:44;15.97;;;12.60;;
7116;SDS011;3600;48.568;7.870;2024-02-28T01:41:11;17.83;;;12.53;;
7116;SDS011;3600;48.568;7.870;2024-02-28T01:43:38;15.17;;;12.37;;
7116;SDS011;3600;48.568;7.870;2024-02-28T01:46:11;18.80;;;14.03;;
7116;SDS011;3600;48.568;7.870;2024-02-28T01:48:49;14.90;;;12.70;;
7116;SDS011;3600;48.568;7.870;2024-02-28T01:51:17;17.90;;;13.77;;
7116;SDS011;3600;48.568;7.870;2024-02-28T01:53:44;17.13;;;13.47;;
7116;SDS011;3600;48.568;7.870;2024-02-28T01:56:12;17.77;;;13.63;;
7116;SDS011;3600;48.568;7.870;2024-02-28T01:58:42;15.03;;;12.93;;
7116;SDS011;3600;48.568;7.870;2024-02-28T02:01:13;17.80;;;13.60;;
7116;SDS011;3600;48.568;7.870;2024-02-28T02:03:42;19.60;;;15.07;;
7116;SDS011;3600;48.568;7.870;2024-02-28T02:06:09;16.17;;;13.40;;
7116;SDS011;3600;48.568;7.870;2024-02-28T02:08:37;15.10;;;12.67;;
7116;SDS011;3600;48.568;7.870;2024-02-28T02:11:08;15.83;;;12.73;;
7116;SDS011;3600;48.568;7.870;2024-02-28T02:13:35;19.73;;;14.67;;
7116;SDS011;3600;48.568;7.870;2024-02-28T02:16:02;17.00;;;13.83;;
7116;SDS011;3600;48.568;7.870;2024-02-28T02:18:29;16.70;;;13.47;;
7116;SDS011;3600;48.568;7.870;2024-02-28T02:20:58;15.07;;;12.37;;
7116;SDS011;3600;48.568;7.870;2024-02-28T02:23:31;17.07;;;13.27;;
7116;SDS011;3600;48.568;7.870;2024-02-28T02:25:58;17.70;;;13.63;;
7116;SDS011;3600;48.568;7.870;2024-02-28T02:28:25;17.53;;;14.07;;
7116;SDS011;3600;48.568;7.870;2024-02-28T02:30:52;18.43;;;13.20;;
7116;SDS011;3600;48.568;7.870;2024-02-28T02:33:19;19.00;;;13.77;;
7116;SDS011;3600;48.568;7.870;2024-02-28T02:35:45;17.47;;;13.70;;
7116;SDS011;3600;48.568;7.870;2024-02-28T02:38:12;16.50;;;13.33;;
7116;SDS011;3600;48.568;7.870;2024-02-28T02:40:39;17.50;;;14.40;;
7116;SDS011;3600;48.568;7.870;2024-02-28T02:43:06;16.30;;;13.90;;
7116;SDS011;3600;48.568;7.870;2024-02-28T02:45:33;16.93;;;13.50;;
7116;SDS011;3600;48.568;7.870;2024-02-28T02:48:00;15.67;;;12.70;;
7116;SDS011;3600;48.568;7.870;2024-02-28T02:50:27;17.37;;;13.70;;
7116;SDS011;3600;48.568;7.870;2024-02-28T02:52:53;18.87;;;13.93;;
7116;SDS011;3600;48.568;7.870;2024-02-28T02:55:20;17.00;;;13.83;;
7116;SDS011;3600;48.568;7.870;2024-02-28T02:57:47;16.87;;;13.53;;
7116;SDS011;3600;48.568;7.870;2024-02-28T03:00:14;16.03;;;13.60;;
7116;SDS011;3600;48.568;7.870;2024-02-28T03:02:45;19.37;;;15.43;;
7116;SDS011;3600;48.568;7.870;2024-02-28T03:05:14;18.00;;;14.17;;
7116;SDS011;3600;48.568;7.870;2024-02-28T03:07:41;18.27;;;13.70;;
7116;SDS011;3600;48.568;7.870;2024-02-28T03:10:08;18.60;;;14.93;;
7116;SDS011;3600;48.568;7.870;2024-02-28T03:12:38;23.87;;;15.50;;
7116;SDS011;3600;48.568;7.870;2024-02-28T03:15:05;21.13;;;15.23;;
7116;SDS011;3600;48.568;7.870;2024-02-28T03:17:33;19.30;;;15.17;;
7116;SDS011;3600;48.568;7.870;2024-02-28T03:20:00;20.00;;;15.47;;
7116;SDS011;3600;48.568;7.870;2024-02-28T03:22:27;19.57;;;14.53;;
7116;SDS011;3600;48.568;7.870;2024-02-28T03:24:54;20.47;;;15.27;;
7116;SDS011;3600;48.568;7.870;2024-02-28T03:27:21;20.47;;;16.77;;
7116;SDS011;3600;48.568;7.870;2024-02-28T03:29:47;18.73;;;15.73;;
7116;SDS011;3600;48.568;7.870;2024-02-28T03:32:15;19.27;;;15.50;;
7116;SDS011;3600;48.568;7.870;2024-02-28T03:34:41;21.73;;;16.07;;
7116;SDS011;3600;48.568;7.870;2024-02-28T03:37:08;23.00;;;16.70;;
7116;SDS011;3600;48.568;7.870;2024-02-28T03:39:35;20.77;;;15.60;;
7116;SDS011;3600;48.568;7.870;2024-02-28T03:42:02;22.47;;;16.13;;
7116;SDS011;3600;48.568;7.870;2024-02-28T03:44:31;22.73;;;17.73;;
7116;SDS011;3600;48.568;7.870;2024-02-28T03:46:58;20.70;;;17.13;;
7116;SDS011;3600;48.568;7.870;2024-02-28T03:49:25;22.53;;;16.70;;
7116;SDS011;3600;48.568;7.870;2024-02-28T03:51:52;22.13;;;16.73;;
7116;SDS011;3600;48.568;7.870;2024-02-28T03:54:19;25.53;;;18.27;;
7116;SDS011;3600;48.568;7.870;2024-02-28T03:56:46;23.73;;;17.87;;
7116;SDS011;3600;48.568;7.870;2024-02-28T03:59:13;24.00;;;17.83;;
7116;SDS011;3600;48.568;7.870;2024-02-28T04:01:40;27.37;;;19.73;;
7116;SDS011;3600;48.568;7.870;2024-02-28T04:04:07;25.47;;;19.07;;
7116;SDS011;3600;48.568;7.870;2024-02-28T04:06:34;23.77;;;18.43;;
7116;SDS011;3600;48.568;7.870;2024-02-28T04:09:01;25.67;;;19.07;;
7116;SDS011;3600;48.568;7.870;2024-02-28T04:11:30;25.30;;;19.30;;
7116;SDS011;3600;48.568;7.870;2024-02-28T04:13:57;26.33;;;19.03;;
7116;SDS011;3600;48.568;7.870;2024-02-28T04:16:24;28.10;;;19.13;;
7116;SDS011;3600;48.568;7.870;2024-02-28T04:18:51;28.50;;;20.67;;
7116;SDS011;3600;48.568;7.870;2024-02-28T04:21:18;27.10;;;20.77;;
7116;SDS011;3600;48.568;7.870;2024-02-28T04:23:45;27.77;;;20.17;;
7116;SDS011;3600;48.568;7.870;2024-02-28T04:26:15;24.47;;;19.40;;
7116;SDS011;3600;48.568;7.870;2024-02-28T04:28:42;29.07;;;20.93;;
7116;SDS011;3600;48.568;7.870;2024-02-28T04:31:12;30.83;;;20.67;;
7116;SDS011;3600;48.568;7.870;2024-02-28T04:33:39;26.40;;;19.93;;
7116;SDS011;3600;48.568;7.870;2024-02-28T04:36:06;32.77;;;20.23;;
7116;SDS011;3600;48.568;7.870;2024-02-28T04:38:33;29.50;;;21.33;;
7116;SDS011;3600;48.568;7.870;2024-02-28T04:41:00;28.83;;;20.70;;
7116;SDS011;3600;48.568;7.870;2024-02-28T04:43:27;28.97;;;20.93;;
7116;SDS011;3600;48.568;7.870;2024-02-28T04:45:54;27.67;;;20.23;;
7116;SDS011;3600;48.568;7.870;2024-02-28T04:48:21;28.93;;;21.27;;
7116;SDS011;3600;48.568;7.870;2024-02-28T04:50:48;27.77;;;20.97;;
7116;SDS011;3600;48.568;7.870;2024-02-28T04:53:15;29.87;;;20.63;;
7116;SDS011;3600;48.568;7.870;2024-02-28T04:55:42;28.50;;;21.00;;
7116;SDS011;3600;48.568;7.870;2024-02-28T04:58:09;25.97;;;19.73;;
7116;SDS011;3600;48.568;7.870;2024-02-28T05:00:36;27.03;;;19.87;;
7116;SDS011;3600;48.568;7.870;2024-02-28T05:03:03;32.07;;;21.00;;
7116;SDS011;3600;48.568;7.870;2024-02-28T05:05:30;27.93;;;20.00;;
7116;SDS011;3600;48.568;7.870;2024-02-28T05:07:57;29.20;;;20.37;;
7116;SDS011;3600;48.568;7.870;2024-02-28T05:10:24;28.83;;;19.90;;
7116;SDS011;3600;48.568;7.870;2024-02-28T05:12:51;29.77;;;20.73;;
7116;SDS011;3600;48.568;7.870;2024-02-28T05:15:18;27.33;;;20.67;;
7116;SDS011;3600;48.568;7.870;2024-02-28T05:17:45;27.53;;;20.67;;
7116;SDS011;3600;48.568;7.870;2024-02-28T05:20:12;26.53;;;20.07;;
7116;SDS011;3600;48.568;7.870;2024-02-28T05:22:40;28.93;;;21.27;;
7116;SDS011;3600;48.568;7.870;2024-02-28T05:25:08;30.60;;;20.60;;
7116;SDS011;3600;48.568;7.870;2024-02-28T05:27:35;28.37;;;20.53;;
7116;SDS011;3600;48.568;7.870;2024-02-28T05:30:02;25.60;;;18.80;;
7116;SDS011;3600;48.568;7.870;2024-02-28T05:32:32;31.00;;;20.13;;
7116;SDS011;3600;48.568;7.870;2024-02-28T05:34:59;30.50;;;21.47;;
7116;SDS011;3600;48.568;7.870;2024-02-28T05:37:26;28.33;;;20.57;;
7116;SDS011;3600;48.568;7.870;2024-02-28T05:39:53;30.60;;;21.63;;
7116;SDS011;3600;48.568;7.870;2024-02-28T05:42:20;25.67;;;20.00;;
7116;SDS011;3600;48.568;7.870;2024-02-28T05:44:50;31.17;;;21.10;;
7116;SDS011;3600;48.568;7.870;2024-02-28T05:47:17;27.13;;;20.70;;
7116;SDS011;3600;48.568;7.870;2024-02-28T05:49:47;28.57;;;21.37;;
7116;SDS011;3600;48.568;7.870;2024-02-28T05:52:14;31.90;;;22.20;;
7116;SDS011;3600;48.568;7.870;2024-02-28T05:54:41;32.47;;;22.70;;
7116;SDS011;3600;48.568;7.870;2024-02-28T05:57:09;27.60;;;20.70;;
7116;SDS011;3600;48.568;7.870;2024-02-28T05:59:35;38.30;;;25.87;;
7116;SDS011;3600;48.568;7.870;2024-02-28T06:02:02;30.43;;;21.73;;
7116;SDS011;3600;48.568;7.870;2024-02-28T06:04:29;34.67;;;24.17;;
7116;SDS011;3600;48.568;7.870;2024-02-28T06:06:56;31.67;;;21.40;;
7116;SDS011;3600;48.568;7.870;2024-02-28T06:09:23;31.50;;;21.67;;
7116;SDS011;3600;48.568;7.870;2024-02-28T06:11:50;29.83;;;21.13;;
7116;SDS011;3600;48.568;7.870;2024-02-28T06:14:17;35.17;;;21.57;;
7116;SDS011;3600;48.568;7.870;2024-02-28T06:16:47;27.47;;;20.27;;
7116;SDS011;3600;48.568;7.870;2024-02-28T06:19:14;29.87;;;22.30;;
7116;SDS011;3600;48.568;7.870;2024-02-28T06:21:41;34.67;;;23.07;;
7116;SDS011;3600;48.568;7.870;2024-02-28T06:24:08;32.20;;;22.40;;
7116;SDS011;3600;48.568;7.870;2024-02-28T06:26:35;32.80;;;23.03;;
7116;SDS011;3600;48.568;7.870;2024-02-28T06:29:08;37.33;;;26.80;;
7116;SDS011;3600;48.568;7.870;2024-02-28T06:31:39;34.93;;;26.50;;
7116;SDS011;3600;48.568;7.870;2024-02-28T06:34:11;32.33;;;22.30;;
7116;SDS011;3600;48.568;7.870;2024-02-28T06:36:40;34.63;;;23.93;;
7116;SDS011;3600;48.568;7.870;2024-02-28T06:39:07;29.37;;;21.27;;
7116;SDS011;3600;48.568;7.870;2024-02-28T06:41:33;32.37;;;21.97;;
7116;SDS011;3600;48.568;7.870;2024-02-28T06:44:03;29.70;;;22.20;;
7116;SDS011;3600;48.568;7.870;2024-02-28T06:46:30;33.97;;;21.63;;
7116;SDS011;3600;48.568;7.870;2024-02-28T06:48:57;34.67;;;23.60;;
7116;SDS011;3600;48.568;7.870;2024-02-28T06:51:24;32.63;;;21.50;;
7116;SDS011;3600;48.568;7.870;2024-02-28T06:53:51;34.27;;;22.33;;
7116;SDS011;3600;48.568;7.870;2024-02-28T06:56:18;35.97;;;22.40;;
7116;SDS011;3600;48.568;7.870;2024-02-28T06:58:45;31.63;;;22.60;;
7116;SDS011;3600;48.568;7.870;2024-02-28T07:01:12;35.10;;;22.87;;
7116;SDS011;3600;48.568;7.870;2024-02-28T07:03:39;32.47;;;21.70;;
7116;SDS011;3600;48.568;7.870;2024-02-28T07:06:06;30.13;;;21.07;;
7116;SDS011;3600;48.568;7.870;2024-02-28T07:08:32;30.70;;;21.23;;
7116;SDS011;3600;48.568;7.870;2024-02-28T07:10:59;30.63;;;21.50;;
7116;SDS011;3600;48.568;7.870;2024-02-28T07:13:27;34.73;;;22.80;;
7116;SDS011;3600;48.568;7.870;2024-02-28T07:15:54;33.57;;;21.63;;
7116;SDS011;3600;48.568;7.870;2024-02-28T07:18:24;31.47;;;21.90;;
7116;SDS011;3600;48.568;7.870;2024-02-28T07:20:57;28.90;;;21.13;;
7116;SDS011;3600;48.568;7.870;2024-02-28T07:23:24;31.37;;;21.67;;
7116;SDS011;3600;48.568;7.870;2024-02-28T07:25:51;31.40;;;21.13;;
7116;SDS011;3600;48.568;7.870;2024-02-28T07:28:18;30.37;;;21.63;;
7116;SDS011;3600;48.568;7.870;2024-02-28T07:30:45;30.40;;;20.03;;
7116;SDS011;3600;48.568;7.870;2024-02-28T07:33:14;31.77;;;23.20;;
7116;SDS011;3600;48.568;7.870;2024-02-28T07:35:45;28.77;;;21.23;;
7116;SDS011;3600;48.568;7.870;2024-02-28T07:38:13;34.33;;;22.80;;
7116;SDS011;3600;48.568;7.870;2024-02-28T07:40:40;31.60;;;22.07;;
7116;SDS011;3600;48.568;7.870;2024-02-28T07:43:07;30.97;;;21.63;;
7116;SDS011;3600;48.568;7.870;2024-02-28T07:45:34;30.23;;;21.07;;
7116;SDS011;3600;48.568;7.870;2024-02-28T07:48:01;30.43;;;21.03;;
7116;SDS011;3600;48.568;7.870;2024-02-28T07:50:28;29.73;;;20.60;;
7116;SDS011;3600;48.568;7.870;2024-02-28T07:52:55;30.27;;;21.30;;
7116;SDS011;3600;48.568;7.870;2024-02-28T07:55:22;31.30;;;20.40;;
7116;SDS011;3600;48.568;7.870;2024-02-28T07:57:53;30.57;;;21.03;;
7116;SDS011;3600;48.568;7.870;2024-02-28T08:00:20;30.63;;;20.47;;
7116;SDS011;3600;48.568;7.870;2024-02-28T08:02:47;29.47;;;20.67;;
7116;SDS011;3600;48.568;7.870;2024-02-28T08:05:14;29.87;;;21.07;;
7116;SDS011;3600;48.568;7.870;2024-02-28T08:07:41;32.23;;;21.33;;
7116;SDS011;3600;48.568;7.870;2024-02-28T08:10:08;29.47;;;20.87;;
7116;SDS011;3600;48.568;7.870;2024-02-28T08:12:36;30.27;;;20.27;;
7116;SDS011;3600;48.568;7.870;2024-02-28T08:15:03;27.87;;;20.10;;
7116;SDS011;3600;48.568;7.870;2024-02-28T08:17:31;32.90;;;20.73;;
7116;SDS011;3600;48.568;7.870;2024-02-28T08:19:59;33.00;;;21.73;;
7116;SDS011;3600;48.568;7.870;2024-02-28T08:22:26;31.47;;;21.53;;
7116;SDS011;3600;48.568;7.870;2024-02-28T08:24:53;30.53;;;21.60;;
7116;SDS011;3600;48.568;7.870;2024-02-28T08:27:20;28.80;;;20.07;;
7116;SDS011;3600;48.568;7.870;2024-02-28T08:29:49;31.90;;;20.80;;
7116;SDS011;3600;48.568;7.870;2024-02-28T08:32:17;31.60;;;21.93;;
7116;SDS011;3600;48.568;7.870;2024-02-28T08:34:44;29.50;;;20.20;;
7116;SDS011;3600;48.568;7.870;2024-02-28T08:37:15;35.40;;;22.70;;
7116;SDS011;3600;48.568;7.870;2024-02-28T08:39:43;28.93;;;20.33;;
7116;SDS011;3600;48.568;7.870;2024-02-28T08:42:10;29.70;;;22.73;;
7116;SDS011;3600;48.568;7.870;2024-02-28T08:44:38;35.77;;;23.67;;
7116;SDS011;3600;48.568;7.870;2024-02-28T08:47:05;32.03;;;22.13;;
7116;SDS011;3600;48.568;7.870;2024-02-28T08:49:35;31.23;;;20.73;;
7116;SDS011;3600;48.568;7.870;2024-02-28T08:52:02;33.40;;;21.87;;
7116;SDS011;3600;48.568;7.870;2024-02-28T08:54:29;31.57;;;22.23;;
7116;SDS011;3600;48.568;7.870;2024-02-28T08:56:57;33.23;;;22.00;;
7116;SDS011;3600;48.568;7.870;2024-02-28T08:59:29;29.00;;;20.57;;
7116;SDS011;3600;48.568;7.870;2024-02-28T09:01:56;34.83;;;22.50;;
7116;SDS011;3600;48.568;7.870;2024-02-28T09:04:23;32.40;;;22.20;;
7116;SDS011;3600;48.568;7.870;2024-02-28T09:06:50;30.83;;;21.63;;
7116;SDS011;3600;48.568;7.870;2024-02-28T09:09:19;32.63;;;21.60;;
7116;SDS011;3600;48.568;7.870;2024-02-28T09:11:46;29.30;;;21.30;;
7116;SDS011;3600;48.568;7.870;2024-02-28T09:14:13;30.03;;;21.13;;
7116;SDS011;3600;48.568;7.870;2024-02-28T09:16:40;34.67;;;22.17;;
7116;SDS011;3600;48.568;7.870;2024-02-28T09:19:07;32.40;;;21.73;;
7116;SDS011;3600;48.568;7.870;2024-02-28T09:21:34;32.53;;;22.27;;
7116;SDS011;3600;48.568;7.870;2024-02-28T09:24:01;29.70;;;21.67;;
7116;SDS011;3600;48.568;7.870;2024-02-28T09:26:28;30.30;;;21.03;;
7116;SDS011;3600;48.568;7.870;2024-02-28T09:28:56;30.93;;;21.67;;
7116;SDS011;3600;48.568;7.870;2024-02-28T09:31:23;33.47;;;21.50;;
7116;SDS011;3600;48.568;7.870;2024-02-28T09:33:50;32.03;;;22.13;;
7116;SDS011;3600;48.568;7.870;2024-02-28T09:36:17;32.23;;;20.80;;
7116;SDS011;3600;48.568;7.870;2024-02-28T09:38:44;31.23;;;21.47;;
7116;SDS011;3600;48.568;7.870;2024-02-28T09:41:14;30.73;;;22.50;;
7116;SDS011;3600;48.568;7.870;2024-02-28T09:43:42;31.23;;;22.03;;
7116;SDS011;3600;48.568;7.870;2024-02-28T09:46:11;31.73;;;20.93;;
7116;SDS011;3600;48.568;7.870;2024-02-28T09:48:42;32.80;;;21.80;;
7116;SDS011;3600;48.568;7.870;2024-02-28T09:51:14;29.73;;;21.50;;
7116;SDS011;3600;48.568;7.870;2024-02-28T09:53:44;30.97;;;21.10;;
7116;SDS011;3600;48.568;7.870;2024-02-28T09:56:11;29.03;;;20.20;;
7116;SDS011;3600;48.568;7.870;2024-02-28T09:58:38;28.97;;;20.47;;
7116;SDS011;3600;48.568;7.870;2024-02-28T10:01:05;28.00;;;20.27;;
7116;SDS011;3600;48.568;7.870;2024-02-28T10:03:36;27.47;;;20.43;;
7116;SDS011;3600;48.568;7.870;2024-02-28T10:06:04;27.57;;;19.40;;
7116;SDS011;3600;48.568;7.870;2024-02-28T10:08:32;27.83;;;20.53;;
7116;SDS011;3600;48.568;7.870;2024-02-28T10:10:59;27.70;;;19.67;;
7116;SDS011;3600;48.568;7.870;2024-02-28T10:13:27;30.67;;;20.70;;
7116;SDS011;3600;48.568;7.870;2024-02-28T10:15:53;28.57;;;20.03;;
7116;SDS011;3600;48.568;7.870;2024-02-28T10:18:20;27.10;;;19.70;;
7116;SDS011;3600;48.568;7.870;2024-02-28T10:20:47;28.63;;;19.87;;
7116;SDS011;3600;48.568;7.870;2024-02-28T10:23:14;29.20;;;20.47;;
7116;SDS011;3600;48.568;7.870;2024-02-28T10:25:43;27.63;;;19.10;;
7116;SDS011;3600;48.568;7.870;2024-02-28T10:28:22;27.53;;;18.90;;
7116;SDS011;3600;48.568;7.870;2024-02-28T10:30:49;27.43;;;19.07;;
7116;SDS011;3600;48.568;7.870;2024-02-28T10:33:16;25.57;;;19.00;;
7116;SDS011;3600;48.568;7.870;2024-02-28T10:35:43;26.60;;;19.07;;
7116;SDS011;3600;48.568;7.870;2024-02-28T10:38:11;26.97;;;18.20;;
7116;SDS011;3600;48.568;7.870;2024-02-28T10:40:39;24.57;;;18.30;;
7116;SDS011;3600;48.568;7.870;2024-02-28T10:43:08;20.73;;;16.13;;
7116;SDS011;3600;48.568;7.870;2024-02-28T10:45:39;22.57;;;17.20;;
7116;SDS011;3600;48.568;7.870;2024-02-28T10:48:26;22.10;;;16.73;;
7116;SDS011;3600;48.568;7.870;2024-02-28T10:50:54;23.00;;;16.57;;
7116;SDS011;3600;48.568;7.870;2024-02-28T10:53:22;21.97;;;16.47;;
7116;SDS011;3600;48.568;7.870;2024-02-28T10:55:59;21.67;;;17.10;;
7116;SDS011;3600;48.568;7.870;2024-02-28T10:58:33;18.77;;;14.77;;
7116;SDS011;3600;48.568;7.870;2024-02-28T11:01:03;21.37;;;16.27;;
7116;SDS011;3600;48.568;7.870;2024-02-28T11:03:31;20.90;;;15.43;;
7116;SDS011;3600;48.568;7.870;2024-02-28T11:05:58;20.10;;;16.17;;
7116;SDS011;3600;48.568;7.870;2024-02-28T11:08:26;20.07;;;16.13;;
7116;SDS011;3600;48.568;7.870;2024-02-28T11:10:55;22.20;;;16.67;;
7116;SDS011;3600;48.568;7.870;2024-02-28T11:13:25;22.17;;;16.23;;
7116;SDS011;3600;48.568;7.870;2024-02-28T11:15:53;21.35;;;16.52;;
7116;SDS011;3600;48.568;7.870;2024-02-28T11:18:21;19.20;;;15.05;;
7116;SDS011;3600;48.568;7.870;2024-02-28T11:20:49;22.65;;;16.88;;
7116;SDS011;3600;48.568;7.870;2024-02-28T11:23:17;21.47;;;15.83;;
7116;SDS011;3600;48.568;7.870;2024-02-28T11:25:44;18.40;;;15.00;;
7116;SDS011;3600;48.568;7.870;2024-02-28T11:28:11;22.70;;;15.63;;
7116;SDS011;3600;48.568;7.870;2024-02-28T11:30:38;20.47;;;15.33;;
7116;SDS011;3600;48.568;7.870;2024-02-28T11:33:07;18.33;;;14.48;;
7116;SDS011;3600;48.568;7.870;2024-02-28T11:35:35;18.23;;;14.98;;
7116;SDS011;3600;48.568;7.870;2024-02-28T11:38:02;19.10;;;14.15;;
7116;SDS011;3600;48.568;7.870;2024-02-28T11:40:32;17.52;;;13.27;;
7116;SDS011;3600;48.568;7.870;2024-02-28T11:42:59;16.05;;;13.63;;
7116;SDS011;3600;48.568;7.870;2024-02-28T11:45:30;17.48;;;13.60;;
7116;SDS011;3600;48.568;7.870;2024-02-28T11:47:57;16.25;;;12.88;;
7116;SDS011;3600;48.568;7.870;2024-02-28T11:50:24;15.88;;;13.00;;
7116;SDS011;3600;48.568;7.870;2024-02-28T11:52:52;18.55;;;13.00;;
7116;SDS011;3600;48.568;7.870;2024-02-28T11:55:19;16.05;;;13.27;;
7116;SDS011;3600;48.568;7.870;2024-02-28T11:57:46;17.02;;;13.38;;
7116;SDS011;3600;48.568;7.870;2024-02-28T12:00:14;14.85;;;11.65;;
7116;SDS011;3600;48.568;7.870;2024-02-28T12:02:41;17.45;;;12.98;;
7116;SDS011;3600;48.568;7.870;2024-02-28T12:05:07;15.23;;;12.70;;
7116;SDS011;3600;48.568;7.870;2024-02-28T12:07:36;17.52;;;13.25;;
7116;SDS011;3600;48.568;7.870;2024-02-28T12:10:03;15.88;;;12.68;;
7116;SDS011;3600;48.568;7.870;2024-02-28T12:12:31;17.02;;;12.35;;
7116;SDS011;3600;48.568;7.870;2024-02-28T12:14:58;14.60;;;12.18;;
7116;SDS011;3600;48.568;7.870;2024-02-28T12:17:32;16.52;;;12.70;;
7116;SDS011;3600;48.568;7.870;2024-02-28T12:19:59;16.98;;;13.30;;
7116;SDS011;3600;48.568;7.870;2024-02-28T12:22:26;15.55;;;12.60;;
7116;SDS011;3600;48.568;7.870;2024-02-28T12:24:54;19.00;;;13.48;;
7116;SDS011;3600;48.568;7.870;2024-02-28T12:27:21;15.82;;;13.52;;
7116;SDS011;3600;48.568;7.870;2024-02-28T12:29:48;16.90;;;14.10;;
7116;SDS011;3600;48.568;7.870;2024-02-28T12:32:15;13.77;;;12.00;;
7116;SDS011;3600;48.568;7.870;2024-02-28T12:34:44;16.33;;;11.65;;
7116;SDS011;3600;48.568;7.870;2024-02-28T12:37:11;16.85;;;13.30;;
7116;SDS011;3600;48.568;7.870;2024-02-28T12:39:38;14.55;;;12.55;;
7116;SDS011;3600;48.568;7.870;2024-02-28T12:42:05;16.80;;;13.80;;
7116;SDS011;3600;48.568;7.870;2024-02-28T12:44:33;15.75;;;13.52;;
7116;SDS011;3600;48.568;7.870;2024-02-28T12:47:01;14.98;;;12.82;;
7116;SDS011;3600;48.568;7.870;2024-02-28T12:49:28;17.80;;;13.55;;
7116;SDS011;3600;48.568;7.870;2024-02-28T12:51:55;15.88;;;12.82;;
7116;SDS011;3600;48.568;7.870;2024-02-28T12:54:22;15.70;;;12.43;;
7116;SDS011;3600;48.568;7.870;2024-02-28T12:56:49;16.08;;;12.98;;
7116;SDS011;3600;48.568;7.870;2024-02-28T12:59:17;15.07;;;11.77;;
7116;SDS011;3600;48.568;7.870;2024-02-28T13:01:44;14.27;;;12.07;;
7116;SDS011;3600;48.568;7.870;2024-02-28T13:04:14;15.70;;;12.90;;
7116;SDS011;3600;48.568;7.870;2024-02-28T13:06:45;16.88;;;13.45;;
7116;SDS011;3600;48.568;7.870;2024-02-28T13:09:13;13.43;;;11.55;;
7116;SDS011;3600;48.568;7.870;2024-02-28T13:11:41;17.30;;;13.05;;
7116;SDS011;3600;48.568;7.870;2024-02-28T13:14:08;14.25;;;11.02;;
7116;SDS011;3600;48.568;7.870;2024-02-28T13:16:41;12.80;;;11.25;;
7116;SDS011;3600;48.568;7.870;2024-02-28T13:19:11;15.38;;;11.10;;
7116;SDS011;3600;48.568;7.870;2024-02-28T13:21:40;14.05;;;11.13;;
7116;SDS011;3600;48.568;7.870;2024-02-28T13:24:07;12.40;;;10.90;;
7116;SDS011;3600;48.568;7.870;2024-02-28T13:26:36;13.68;;;10.90;;
7116;SDS011;3600;48.568;7.870;2024-02-28T13:29:03;13.82;;;11.05;;
7116;SDS011;3600;48.568;7.870;2024-02-28T13:31:30;12.77;;;10.55;;
7116;SDS011;3600;48.568;7.870;2024-02-28T13:33:57;13.18;;;10.10;;
7116;SDS011;3600;48.568;7.870;2024-02-28T13:36:24;12.32;;;10.23;;
7116;SDS011;3600;48.568;7.870;2024-02-28T13:39:33;10.68;;;9.07;;
7116;SDS011;3600;48.568;7.870;2024-02-28T13:45:36;14.52;;;10.82;;
7116;SDS011;3600;48.568;7.870;2024-02-28T13:48:50;12.77;;;10.20;;
7116;SDS011;3600;48.568;7.870;2024-02-28T13:51:46;10.85;;;8.70;;
7116;SDS011;3600;48.568;7.870;2024-02-28T13:54:24;13.18;;;9.20;;
7116;SDS011;3600;48.568;7.870;2024-02-28T13:56:51;12.25;;;8.30;;
7116;SDS011;3600;48.568;7.870;2024-02-28T13:59:18;11.15;;;9.02;;
7116;SDS011;3600;48.568;7.870;2024-02-28T14:01:45;9.90;;;8.45;;
7116;SDS011;3600;48.568;7.870;2024-02-28T14:04:12;10.18;;;8.35;;
7116;SDS011;3600;48.568;7.870;2024-02-28T14:06:39;11.63;;;9.70;;
7116;SDS011;3600;48.568;7.870;2024-02-28T14:09:06;10.48;;;9.00;;
7116;SDS011;3600;48.568;7.870;2024-02-28T14:11:35;11.55;;;9.05;;
7116;SDS011;3600;48.568;7.870;2024-02-28T14:14:02;10.90;;;8.70;;
7116;SDS011;3600;48.568;7.870;2024-02-28T14:16:29;9.20;;;8.23;;
7116;SDS011;3600;48.568;7.870;2024-02-28T14:18:58;8.98;;;7.85;;
7116;SDS011;3600;48.568;7.870;2024-02-28T14:21:25;11.27;;;8.10;;
7116;SDS011;3600;48.568;7.870;2024-02-28T14:23:52;10.70;;;8.30;;
7116;SDS011;3600;48.568;7.870;2024-02-28T14:26:20;10.02;;;7.82;;
7116;SDS011;3600;48.568;7.870;2024-02-28T14:28:50;9.25;;;7.20;;
7116;SDS011;3600;48.568;7.870;2024-02-28T14:31:17;8.23;;;7.00;;
7116;SDS011;3600;48.568;7.870;2024-02-28T14:33:44;7.38;;;6.55;;
7116;SDS011;3600;48.568;7.870;2024-02-28T14:36:12;8.52;;;7.32;;
7116;SDS011;3600;48.568;7.870;2024-02-28T14:38:39;7.22;;;6.50;;
7116;SDS011;3600;48.568;7.870;2024-02-28T14:41:09;6.75;;;6.10;;
7116;SDS011;3600;48.568;7.870;2024-02-28T14:43:37;8.48;;;6.47;;
7116;SDS011;3600;48.568;7.870;2024-02-28T14:46:03;7.90;;;6.15;;
7116;SDS011;3600;48.568;7.870;2024-02-28T14:48:31;7.70;;;6.57;;
7116;SDS011;3600;48.568;7.870;2024-02-28T14:51:05;7.68;;;6.05;;
7116;SDS011;3600;48.568;7.870;2024-02-28T14:53:33;8.55;;;6.40;;
7116;SDS011;3600;48.568;7.870;2024-02-28T14:55:59;6.72;;;5.53;;
7116;SDS011;3600;48.568;7.870;2024-02-28T14:58:29;7.05;;;5.72;;